Time;durP1;ratioP1;P1;durP2;ratioP2;P2;SDS_P1;SDS_P2;PMS_P1;PMS_P2;Temp;Humidity;BMP_temperature;BMP_pressure;BME280_temperature;BME280_humidity;BME280_pressure;Samples;Min_cycle;Max_cycle;Signal;HPM_P1;HPM_P2
2023/01/09 00:01:49;;;;;;;2.15;1.90;;;19.50;63.30;;;;;;5006101;28;20307;-67
2023/01/09 00:04:15;;;;;;;1.65;1.52;;;19.50;63.30;;;;;;4991108;28;20196;-66
2023/01/09 00:06:42;;;;;;;1.80;1.40;;;19.50;63.30;;;;;;5012302;28;20214;-66
2023/01/09 00:09:09;;;;;;;1.40;1.30;;;19.50;63.30;;;;;;4983751;28;20211;-66
2023/01/09 00:11:36;;;;;;;1.55;1.45;;;19.50;63.30;;;;;;4995583;28;20252;-66
2023/01/09 00:14:03;;;;;;;1.60;1.35;;;19.50;63.30;;;;;;5013600;28;20190;-66
2023/01/09 00:16:29;;;;;;;1.60;1.23;;;19.50;63.20;;;;;;5004751;28;20220;-67
2023/01/09 00:18:55;;;;;;;2.05;1.42;;;19.50;63.30;;;;;;5005758;28;20184;-66
2023/01/09 00:21:22;;;;;;;1.75;1.30;;;19.50;63.30;;;;;;4996983;28;20570;-67
2023/01/09 00:23:47;;;;;;;1.83;1.70;;;19.50;63.30;;;;;;5002520;28;20271;-66
2023/01/09 00:26:17;;;;;;;1.73;1.48;;;19.50;63.30;;;;;;5001846;28;20295;-67
2023/01/09 00:28:48;;;;;;;1.42;1.33;;;19.50;63.30;;;;;;5009760;28;20185;-67
2023/01/09 00:31:17;;;;;;;1.83;1.30;;;19.50;63.40;;;;;;4993852;28;20185;-67
2023/01/09 00:33:50;;;;;;;1.30;1.20;;;19.50;63.30;;;;;;4995684;28;20192;-66
2023/01/09 00:36:16;;;;;;;2.28;1.58;;;19.50;63.30;;;;;;5006874;28;20216;-66
2023/01/09 00:38:41;;;;;;;1.38;1.20;;;19.50;63.40;;;;;;4992033;28;20199;-67
2023/01/09 00:41:14;;;;;;;1.45;1.20;;;19.50;63.30;;;;;;4987418;28;20211;-66
2023/01/09 00:43:50;;;;;;;1.52;1.30;;;19.50;63.30;;;;;;4995038;28;20199;-66
2023/01/09 00:46:20;;;;;;;1.80;1.30;;;19.50;63.30;;;;;;5013027;28;20247;-66
2023/01/09 00:48:48;;;;;;;1.75;1.20;;;19.50;63.40;;;;;;5012854;28;20291;-67
2023/01/09 00:51:18;;;;;;;2.53;1.20;;;19.50;63.30;;;;;;5007785;28;20211;-67
2023/01/09 00:53:45;;;;;;;1.33;1.23;;;19.50;63.30;;;;;;5011496;28;20247;-67
2023/01/09 00:56:17;;;;;;;1.77;1.30;;;19.50;63.30;;;;;;5013907;28;20295;-67
2023/01/09 00:58:43;;;;;;;1.65;1.33;;;19.50;63.30;;;;;;5004131;28;20670;-66
2023/01/09 01:01:09;;;;;;;1.40;1.30;;;19.50;63.30;;;;;;5004432;28;20212;-67
2023/01/09 01:03:34;;;;;;;1.10;0.98;;;19.50;63.30;;;;;;4996648;28;20199;-66
2023/01/09 01:08:45;;;;;;;1.38;1.20;;;19.50;63.40;;;;;;5003059;28;20192;-67
2023/01/09 01:11:11;;;;;;;1.40;1.30;;;19.50;63.30;;;;;;5000968;28;20189;-67
2023/01/09 01:13:39;;;;;;;1.20;1.10;;;19.50;63.30;;;;;;5003175;28;20219;-67
2023/01/09 01:16:09;;;;;;;2.33;1.17;;;19.50;63.30;;;;;;5012380;28;20291;-67
2023/01/09 01:18:34;;;;;;;1.17;1.08;;;19.50;63.40;;;;;;5003423;28;20641;-66
2023/01/09 01:21:05;;;;;;;1.02;1.02;;;19.60;63.50;;;;;;5004952;28;20235;-66
2023/01/09 01:23:30;;;;;;;1.20;1.10;;;19.50;63.30;;;;;;5004181;28;20220;-66
2023/01/09 01:25:56;;;;;;;1.00;1.00;;;19.50;63.30;;;;;;4984128;28;20215;-67
2023/01/09 01:28:22;;;;;;;1.15;1.02;;;19.50;63.40;;;;;;4991505;28;20176;-67
2023/01/09 01:30:47;;;;;;;1.42;0.80;;;19.50;63.30;;;;;;5001517;28;20195;-66
2023/01/09 01:33:13;;;;;;;1.55;1.25;;;19.50;63.40;;;;;;4976716;28;20231;-66
2023/01/09 01:35:39;;;;;;;1.27;0.90;;;19.50;63.40;;;;;;5001540;28;20193;-66
2023/01/09 01:38:04;;;;;;;1.20;0.90;;;19.50;63.40;;;;;;4995570;28;20184;-67
2023/01/09 01:40:30;;;;;;;1.10;1.00;;;19.50;63.40;;;;;;5003888;28;20224;-67
2023/01/09 01:42:57;;;;;;;1.00;1.00;;;19.50;63.40;;;;;;5008799;28;20276;-67
2023/01/09 01:45:27;;;;;;;1.55;1.00;;;19.50;63.40;;;;;;4983769;28;20191;-67
2023/01/09 01:48:00;;;;;;;1.10;1.00;;;19.60;63.50;;;;;;5000929;28;20195;-67
2023/01/09 01:50:58;;;;;;;1.20;1.00;;;19.50;63.40;;;;;;5000313;28;20324;-66
2023/01/09 01:53:34;;;;;;;0.80;0.80;;;19.50;63.40;;;;;;5006794;28;20204;-66
2023/01/09 01:56:09;;;;;;;1.33;1.00;;;19.50;63.40;;;;;;4991946;28;20215;-66
2023/01/09 01:58:43;;;;;;;1.00;1.00;;;19.50;63.40;;;;;;5000387;28;20193;-66
2023/01/09 02:01:09;;;;;;;1.27;1.17;;;19.50;63.40;;;;;;4993901;28;20203;-67
2023/01/09 02:03:38;;;;;;;1.02;1.00;;;19.50;63.40;;;;;;4994795;28;20176;-66
2023/01/09 02:06:05;;;;;;;0.90;0.90;;;19.50;63.40;;;;;;5004365;28;20206;-66
2023/01/09 02:08:31;;;;;;;1.52;1.20;;;19.50;63.50;;;;;;4987528;28;20187;-67
2023/01/09 02:10:57;;;;;;;1.52;0.82;;;19.50;63.40;;;;;;4999997;28;20200;-66
2023/01/09 02:13:26;;;;;;;1.25;0.90;;;19.50;63.40;;;;;;4999857;28;20189;-67
2023/01/09 02:16:30;;;;;;;1.08;0.90;;;19.50;63.40;;;;;;4991652;28;20215;-66
2023/01/09 02:19:59;;;;;;;2.15;1.25;;;19.50;63.40;;;;;;5002702;28;20227;-67
2023/01/09 02:22:56;;;;;;;0.90;0.90;;;19.50;63.30;;;;;;4987970;28;20200;-66
2023/01/09 02:25:54;;;;;;;0.95;0.90;;;19.50;63.30;;;;;;4990059;28;20195;-67
2023/01/09 02:28:56;;;;;;;1.30;0.98;;;19.50;63.40;;;;;;4996726;28;20240;-66
2023/01/09 02:31:52;;;;;;;1.80;0.80;;;19.60;63.50;;;;;;4989884;28;20192;-67
2023/01/09 02:34:36;;;;;;;1.33;0.90;;;19.50;63.30;;;;;;5005153;28;20189;-66
2023/01/09 02:37:53;;;;;;;0.98;0.93;;;19.50;63.40;;;;;;4987114;28;20207;-66
2023/01/09 02:40:42;;;;;;;0.80;0.80;;;19.50;63.40;;;;;;4988567;28;20209;-66
2023/01/09 02:43:09;;;;;;;1.00;0.90;;;19.50;63.40;;;;;;4983388;28;20208;-67
2023/01/09 02:45:35;;;;;;;1.10;1.00;;;19.50;63.40;;;;;;5008570;28;20180;-65
2023/01/09 02:48:01;;;;;;;1.13;1.00;;;19.50;63.30;;;;;;5007233;28;20193;-66
2023/01/09 02:50:52;;;;;;;0.90;0.90;;;19.50;63.30;;;;;;4990248;28;20192;-67
2023/01/09 02:53:27;;;;;;;0.90;0.90;;;19.50;63.40;;;;;;4983098;28;20243;-66
2023/01/09 02:56:32;;;;;;;1.05;0.90;;;19.50;63.30;;;;;;4990210;28;20216;-66
2023/01/09 02:59:28;;;;;;;0.80;0.77;;;19.50;63.40;;;;;;5002316;28;20194;-66
2023/01/09 03:02:33;;;;;;;0.90;0.90;;;19.50;63.40;;;;;;4991999;28;20222;-67
2023/01/09 03:05:15;;;;;;;0.70;0.70;;;19.50;63.40;;;;;;4995962;28;20197;-66
2023/01/09 03:07:54;;;;;;;0.90;0.90;;;19.50;64.20;;;;;;4991049;28;20204;-66
2023/01/09 03:10:50;;;;;;;0.85;0.85;;;19.50;63.40;;;;;;4998753;28;20188;-67
2023/01/09 03:13:22;;;;;;;0.90;0.90;;;19.60;63.50;;;;;;4995081;28;20235;-66
2023/01/09 03:15:52;;;;;;;0.90;0.90;;;19.50;63.30;;;;;;4995470;28;20306;-67
2023/01/09 03:18:23;;;;;;;0.85;0.85;;;19.50;63.30;;;;;;4992362;28;20199;-67
2023/01/09 03:20:50;;;;;;;0.93;0.80;;;19.60;63.50;;;;;;5010483;28;20234;-66
2023/01/09 03:23:16;;;;;;;0.80;0.80;;;19.50;63.30;;;;;;4998324;28;20222;-66
2023/01/09 03:25:42;;;;;;;2.08;0.80;;;19.50;63.30;;;;;;4998040;28;20217;-66
2023/01/09 03:28:27;;;;;;;1.58;0.80;;;19.50;63.40;;;;;;5011241;28;20177;-66
2023/01/09 03:30:53;;;;;;;1.05;0.85;;;19.50;63.40;;;;;;4986445;28;20593;-66
2023/01/09 03:33:19;;;;;;;0.80;0.80;;;19.60;63.50;;;;;;5008468;28;20235;-66
2023/01/09 03:35:45;;;;;;;0.73;0.73;;;19.60;63.50;;;;;;4997996;28;20243;-67
2023/01/09 03:38:10;;;;;;;0.80;0.80;;;19.60;63.50;;;;;;5005995;28;20183;-67
2023/01/09 03:40:36;;;;;;;0.77;0.77;;;19.60;63.50;;;;;;4998420;28;20213;-67
2023/01/09 03:43:02;;;;;;;0.80;0.75;;;19.60;63.40;;;;;;5005767;28;20220;-66
2023/01/09 03:45:28;;;;;;;1.15;0.82;;;19.60;63.50;;;;;;4989731;28;20219;-66
2023/01/09 03:47:53;;;;;;;1.38;0.90;;;19.50;63.40;;;;;;5003655;28;20216;-66
2023/01/09 03:50:19;;;;;;;0.70;0.70;;;19.50;63.40;;;;;;4991961;28;20177;-66
2023/01/09 03:52:45;;;;;;;0.95;0.80;;;19.60;63.40;;;;;;4997493;28;20571;-66
2023/01/09 03:55:10;;;;;;;0.70;0.70;;;19.50;63.40;;;;;;4989562;28;20187;-66
2023/01/09 03:57:36;;;;;;;0.85;0.60;;;19.60;63.50;;;;;;4989586;28;20215;-65
2023/01/09 04:00:03;;;;;;;0.70;0.70;;;19.50;63.30;;;;;;4985970;28;20665;-66
2023/01/09 04:02:38;;;;;;;0.80;0.60;;;19.50;63.40;;;;;;4994501;28;20237;-66
2023/01/09 04:05:04;;;;;;;0.85;0.63;;;19.50;63.30;;;;;;4989361;28;20188;-67
2023/01/09 04:07:30;;;;;;;1.08;0.60;;;19.50;63.40;;;;;;4993995;28;20251;-66
2023/01/09 04:09:55;;;;;;;0.77;0.70;;;19.60;63.50;;;;;;4993830;28;20188;-66
2023/01/09 04:12:21;;;;;;;0.70;0.70;;;19.60;63.40;;;;;;5003473;28;20177;-66
2023/01/09 04:14:47;;;;;;;0.77;0.77;;;19.50;63.30;;;;;;5011381;28;20191;-66
2023/01/09 04:17:12;;;;;;;0.82;0.82;;;19.50;63.30;;;;;;5000882;28;20288;-66
2023/01/09 04:19:38;;;;;;;0.70;0.70;;;19.50;63.30;;;;;;4985647;28;20219;-66
2023/01/09 04:22:04;;;;;;;1.65;0.60;;;19.60;63.40;;;;;;5012166;28;20212;-66
2023/01/09 04:24:31;;;;;;;0.60;0.60;;;19.60;63.50;;;;;;4982304;28;20193;-64
2023/01/09 04:26:57;;;;;;;0.70;0.70;;;19.50;63.30;;;;;;4994809;28;20219;-66
2023/01/09 04:29:22;;;;;;;0.60;0.60;;;19.50;64.10;;;;;;4991354;28;20256;-66
2023/01/09 04:31:48;;;;;;;0.68;0.68;;;19.50;63.30;;;;;;4992722;28;20615;-66
2023/01/09 04:34:14;;;;;;;0.60;0.60;;;19.50;63.40;;;;;;4984380;28;20196;-66
2023/01/09 04:36:41;;;;;;;0.60;0.60;;;19.50;63.30;;;;;;4993246;28;20692;-66
2023/01/09 04:39:08;;;;;;;0.60;0.60;;;19.50;63.30;;;;;;4988825;28;20184;-66
2023/01/09 04:41:48;;;;;;;0.60;0.60;;;19.50;63.30;;;;;;5013293;28;20295;-66
2023/01/09 04:44:26;;;;;;;0.52;0.52;;;19.50;63.30;;;;;;4981713;28;20219;-66
2023/01/09 04:46:53;;;;;;;0.50;0.50;;;19.50;63.30;;;;;;4996398;28;20668;-67
2023/01/09 04:49:20;;;;;;;0.82;0.70;;;19.50;63.40;;;;;;4991186;28;20187;-67
2023/01/09 04:51:46;;;;;;;0.60;0.60;;;19.50;64.10;;;;;;4993713;28;20219;-67
2023/01/09 04:54:12;;;;;;;0.47;0.47;;;19.60;63.40;;;;;;5012557;28;20192;-66
2023/01/09 04:56:38;;;;;;;0.57;0.55;;;19.50;63.30;;;;;;5021572;28;20228;-67
2023/01/09 04:59:06;;;;;;;1.15;0.80;;;19.50;63.30;;;;;;5003816;28;20231;-66
2023/01/09 05:01:32;;;;;;;0.57;0.57;;;19.50;63.30;;;;;;5029243;28;20216;-67
2023/01/09 05:03:58;;;;;;;0.50;0.50;;;19.50;63.30;;;;;;5003639;28;20238;-67
2023/01/09 05:06:24;;;;;;;0.82;0.60;;;19.50;63.30;;;;;;5008202;28;20273;-66
2023/01/09 05:08:50;;;;;;;0.50;0.50;;;19.50;63.30;;;;;;4987930;28;20597;-66
2023/01/09 05:11:16;;;;;;;0.70;0.70;;;19.50;63.20;;;;;;4983995;28;20284;-66
2023/01/09 05:13:41;;;;;;;0.82;0.50;;;19.50;63.30;;;;;;5010127;28;20184;-66
2023/01/09 05:16:08;;;;;;;0.50;0.50;;;19.50;63.30;;;;;;5008947;28;20217;-66
2023/01/09 05:18:34;;;;;;;0.50;0.50;;;19.50;63.30;;;;;;4979955;28;20188;-66
2023/01/09 05:20:59;;;;;;;0.63;0.52;;;19.50;63.30;;;;;;5010280;28;20262;-66
2023/01/09 05:23:25;;;;;;;1.00;0.50;;;19.60;63.40;;;;;;4995944;28;20184;-67
2023/01/09 05:25:51;;;;;;;0.45;0.45;;;19.50;63.30;;;;;;4984565;28;20209;-66
2023/01/09 05:28:16;;;;;;;0.40;0.40;;;19.60;63.40;;;;;;5005167;28;20184;-67
2023/01/09 05:30:42;;;;;;;0.60;0.60;;;19.50;63.40;;;;;;5012316;28;20195;-66
2023/01/09 05:33:08;;;;;;;0.60;0.52;;;19.50;63.30;;;;;;5001504;28;20187;-66
2023/01/09 05:35:34;;;;;;;0.63;0.63;;;19.60;63.40;;;;;;4999107;28;20554;-66
2023/01/09 05:37:59;;;;;;;0.50;0.50;;;19.50;63.30;;;;;;4985173;28;20238;-67
2023/01/09 05:40:25;;;;;;;0.43;0.43;;;19.50;63.30;;;;;;5000513;28;20218;-67
2023/01/09 05:42:51;;;;;;;0.55;0.50;;;19.50;63.20;;;;;;5025841;28;20195;-66
2023/01/09 05:45:17;;;;;;;0.57;0.57;;;19.60;63.40;;;;;;4987597;28;20188;-66
2023/01/09 05:47:44;;;;;;;0.50;0.50;;;19.50;63.30;;;;;;5004469;28;20226;-67
2023/01/09 05:50:12;;;;;;;0.63;0.63;;;19.50;63.20;;;;;;5000344;28;20184;-67
2023/01/09 05:52:38;;;;;;;0.40;0.40;;;19.50;63.10;;;;;;5001570;28;20193;-66
2023/01/09 05:55:06;;;;;;;1.30;0.50;;;19.60;63.30;;;;;;4995176;28;20275;-67
2023/01/09 05:57:32;;;;;;;0.40;0.40;;;19.50;63.20;;;;;;5027280;28;20208;-67
2023/01/09 05:59:57;;;;;;;0.55;0.50;;;19.50;63.10;;;;;;5011104;28;20269;-66
2023/01/09 06:02:23;;;;;;;0.50;0.40;;;19.50;63.20;;;;;;4995108;28;20203;-66
2023/01/09 06:04:49;;;;;;;0.57;0.50;;;19.50;63.20;;;;;;4986797;28;20198;-66
2023/01/09 06:07:14;;;;;;;0.57;0.50;;;19.60;63.20;;;;;;4975821;28;20212;-67
2023/01/09 06:09:40;;;;;;;0.55;0.55;;;19.50;63.10;;;;;;5007276;28;20214;-66
2023/01/09 06:12:06;;;;;;;0.93;0.50;;;19.50;63.10;;;;;;4986121;28;20679;-66
2023/01/09 06:14:32;;;;;;;0.63;0.63;;;19.60;63.20;;;;;;5003749;28;20242;-66
2023/01/09 06:16:58;;;;;;;0.50;0.50;;;19.50;63.10;;;;;;4999464;28;20208;-66
2023/01/09 06:19:24;;;;;;;0.82;0.40;;;19.50;63.10;;;;;;4979786;28;20195;-65
2023/01/09 06:21:52;;;;;;;0.50;0.50;;;19.50;63.10;;;;;;4986212;28;20224;-66
2023/01/09 06:24:18;;;;;;;1.10;0.50;;;19.60;63.20;;;;;;5011948;28;20661;-66
2023/01/09 06:26:45;;;;;;;1.77;0.55;;;19.50;63.10;;;;;;5009721;28;20232;-68
2023/01/09 06:29:10;;;;;;;1.05;0.50;;;19.50;63.10;;;;;;5001761;28;20812;-66
2023/01/09 06:31:36;;;;;;;0.43;0.43;;;19.50;63.10;;;;;;5003978;28;20195;-66
2023/01/09 06:34:02;;;;;;;0.80;0.80;;;19.50;63.10;;;;;;4983856;28;20193;-66
2023/01/09 06:36:28;;;;;;;0.40;0.40;;;19.50;63.10;;;;;;4993079;28;20218;-67
2023/01/09 06:38:53;;;;;;;0.75;0.63;;;19.50;63.10;;;;;;4992788;28;20254;-66
2023/01/09 06:41:19;;;;;;;2.05;0.68;;;19.50;63.00;;;;;;4995144;28;20275;-66
2023/01/09 06:43:45;;;;;;;0.70;0.40;;;19.50;63.10;;;;;;5011937;28;20696;-66
2023/01/09 06:46:10;;;;;;;2.05;0.50;;;19.50;63.00;;;;;;4993148;28;20215;-67
2023/01/09 06:48:36;;;;;;;0.57;0.47;;;19.50;63.00;;;;;;4996951;28;20685;-67
2023/01/09 06:51:02;;;;;;;0.60;0.60;;;19.50;63.00;;;;;;4984522;28;20204;-67
2023/01/09 06:53:28;;;;;;;1.48;0.80;;;19.50;63.00;;;;;;4994014;28;20203;-68
2023/01/09 06:55:54;;;;;;;0.70;0.40;;;19.50;63.00;;;;;;5002151;28;20216;-67
2023/01/09 06:58:19;;;;;;;1.25;0.60;;;19.50;63.00;;;;;;5010245;28;20195;-67
2023/01/09 07:00:48;;;;;;;2.05;0.80;;;19.50;62.90;;;;;;5007099;28;20215;-66
2023/01/09 07:03:18;;;;;;;1.00;0.65;;;19.50;63.00;;;;;;5007032;28;20246;-67
2023/01/09 07:05:45;;;;;;;0.95;0.70;;;19.50;63.00;;;;;;5002752;28;20192;-67
2023/01/09 07:08:11;;;;;;;1.45;0.40;;;19.50;63.00;;;;;;5006590;28;20189;-67
2023/01/09 07:10:37;;;;;;;1.65;0.80;;;19.50;63.00;;;;;;4998908;28;20207;-66
2023/01/09 07:13:03;;;;;;;1.27;0.50;;;19.50;63.00;;;;;;5007077;28;20189;-67
2023/01/09 07:15:29;;;;;;;0.82;0.50;;;19.50;63.00;;;;;;4995724;28;20200;-67
2023/01/09 07:17:54;;;;;;;2.25;0.55;;;19.50;63.00;;;;;;4999433;28;20207;-66
2023/01/09 07:20:20;;;;;;;2.03;0.77;;;19.50;63.00;;;;;;4986820;28;20602;-66
2023/01/09 07:22:47;;;;;;;0.95;0.70;;;19.50;62.90;;;;;;5002582;28;20223;-66
2023/01/09 07:25:13;;;;;;;1.35;0.52;;;19.50;62.90;;;;;;4991869;28;20722;-66
2023/01/09 07:27:38;;;;;;;1.35;0.60;;;19.50;62.90;;;;;;4999605;28;20295;-66
2023/01/09 07:30:05;;;;;;;1.23;0.80;;;19.50;62.90;;;;;;4984253;28;20196;-67
2023/01/09 07:32:32;;;;;;;1.13;0.80;;;19.50;62.80;;;;;;5002087;28;20198;-66
2023/01/09 07:34:58;;;;;;;1.42;0.57;;;19.50;62.90;;;;;;5001041;28;20250;-67
2023/01/09 07:37:24;;;;;;;1.88;0.70;;;19.50;62.90;;;;;;4994939;28;20263;-66
2023/01/09 07:39:50;;;;;;;0.95;0.70;;;19.50;62.90;;;;;;4978016;28;20263;-67
2023/01/09 07:42:16;;;;;;;0.80;0.77;;;19.50;62.80;;;;;;4998673;28;20221;-66
2023/01/09 07:44:42;;;;;;;1.00;0.80;;;19.50;62.80;;;;;;4989498;28;20188;-67
2023/01/09 07:47:08;;;;;;;0.98;0.70;;;19.50;62.80;;;;;;4983472;28;20268;-67
2023/01/09 07:49:34;;;;;;;1.50;0.95;;;19.50;62.80;;;;;;4981743;28;20216;-66
2023/01/09 07:52:00;;;;;;;0.95;0.70;;;19.50;62.80;;;;;;4982132;28;20192;-66
2023/01/09 07:54:25;;;;;;;0.90;0.60;;;19.50;62.80;;;;;;5003292;28;20222;-66
2023/01/09 07:56:51;;;;;;;2.25;1.00;;;19.50;62.80;;;;;;4978887;28;20216;-67
2023/01/09 07:59:17;;;;;;;0.60;0.60;;;19.50;62.80;;;;;;4997224;28;20192;-66
2023/01/09 08:01:43;;;;;;;1.00;0.77;;;19.50;62.80;;;;;;5005374;28;20219;-67
2023/01/09 08:04:09;;;;;;;1.75;0.95;;;19.50;62.80;;;;;;5003332;28;20208;-67
2023/01/09 08:06:35;;;;;;;1.23;0.80;;;19.50;62.70;;;;;;4980669;28;20214;-67
2023/01/09 08:09:00;;;;;;;1.30;0.70;;;19.50;62.80;;;;;;4986246;28;20203;-66
2023/01/09 08:11:26;;;;;;;0.80;0.70;;;19.50;62.80;;;;;;4996953;28;20184;-66
2023/01/09 08:13:52;;;;;;;1.35;0.88;;;19.50;62.70;;;;;;4996991;28;20345;-67
2023/01/09 08:16:18;;;;;;;1.85;0.98;;;19.50;62.70;;;;;;5005063;28;20646;-67
2023/01/09 08:18:44;;;;;;;0.93;0.77;;;19.50;62.70;;;;;;5006221;28;20200;-67
2023/01/09 08:21:13;;;;;;;1.65;0.77;;;19.50;62.60;;;;;;5003479;28;20220;-67
2023/01/09 08:23:39;;;;;;;1.42;0.77;;;19.50;62.60;;;;;;5007014;28;20630;-67
2023/01/09 08:26:05;;;;;;;1.00;0.80;;;19.50;62.70;;;;;;4977024;28;20216;-67
2023/01/09 08:28:31;;;;;;;1.02;0.60;;;19.50;62.70;;;;;;4984966;28;20215;-66
2023/01/09 08:30:57;;;;;;;1.00;0.80;;;19.50;62.50;;;;;;5001459;28;20200;-66
2023/01/09 08:33:22;;;;;;;1.30;0.70;;;19.50;62.60;;;;;;4976878;28;20200;-66
2023/01/09 08:35:48;;;;;;;0.80;0.80;;;19.50;62.60;;;;;;5001250;28;20215;-67
2023/01/09 08:38:14;;;;;;;0.80;0.75;;;19.50;62.60;;;;;;4992084;28;20763;-67
2023/01/09 08:40:40;;;;;;;1.15;0.98;;;19.50;62.60;;;;;;5008517;28;20684;-66
2023/01/09 08:48:47;;;;;;;1.83;0.70;;;19.50;62.50;;;;;;4990270;28;20704;-66
2023/01/09 08:51:13;;;;;;;1.00;0.70;;;19.50;62.50;;;;;;5003493;28;20188;-66
2023/01/09 08:53:39;;;;;;;0.60;0.60;;;19.50;62.50;;;;;;4976699;28;20188;-66
2023/01/09 08:56:05;;;;;;;1.98;0.70;;;19.50;62.40;;;;;;4990702;28;20303;-66
2023/01/09 08:58:31;;;;;;;0.93;0.70;;;19.50;62.50;;;;;;4976313;28;20200;-67
2023/01/09 09:00:57;;;;;;;1.00;0.73;;;19.50;63.20;;;;;;4984733;28;20240;-67
2023/01/09 09:03:24;;;;;;;1.02;0.65;;;19.50;62.40;;;;;;4993071;28;20207;-67
2023/01/09 09:05:50;;;;;;;0.68;0.65;;;19.50;62.40;;;;;;4988601;28;20209;-66
2023/01/09 09:08:15;;;;;;;1.35;1.02;;;19.50;62.40;;;;;;4991445;28;20684;-66
2023/01/09 09:10:41;;;;;;;0.85;0.60;;;19.50;63.10;;;;;;4990509;28;20211;-66
2023/01/09 09:13:07;;;;;;;1.02;0.63;;;19.50;62.40;;;;;;4987539;28;20199;-67
2023/01/09 09:15:33;;;;;;;0.85;0.70;;;19.50;62.30;;;;;;5001521;28;20276;-67
2023/01/09 09:18:03;;;;;;;0.70;0.70;;;19.50;62.20;;;;;;5002748;28;20192;-67
2023/01/09 09:20:33;;;;;;;0.82;0.65;;;19.50;62.30;;;;;;4984392;28;20216;-66
2023/01/09 09:22:59;;;;;;;0.60;0.60;;;19.50;62.30;;;;;;4984271;28;20565;-66
2023/01/09 09:25:25;;;;;;;1.92;0.70;;;19.50;62.30;;;;;;5005045;28;20691;-66
2023/01/09 09:27:51;;;;;;;1.00;0.70;;;19.50;62.30;;;;;;4996064;28;20209;-67
2023/01/09 09:30:19;;;;;;;1.33;0.65;;;19.50;62.30;;;;;;4991955;28;20267;-66
2023/01/09 09:32:45;;;;;;;0.60;0.60;;;19.50;62.30;;;;;;5006636;28;20200;-67
2023/01/09 09:35:11;;;;;;;0.70;0.68;;;19.50;62.30;;;;;;5002957;28;20188;-66
2023/01/09 09:37:38;;;;;;;1.25;0.73;;;19.50;62.30;;;;;;4999807;28;20295;-64
2023/01/09 09:40:05;;;;;;;0.73;0.70;;;19.50;62.30;;;;;;5000229;28;20709;-67
2023/01/09 09:47:02;;;;;;;1.08;0.60;;;19.50;62.20;;;;;;4918095;29;20231;-66
2023/01/09 09:50:06;;;;;;;1.05;0.85;;;19.50;62.20;;;;;;4915699;29;20215;-67
2023/01/09 09:53:01;;;;;;;0.93;0.70;;;19.50;62.20;;;;;;4967676;28;20206;-66
2023/01/09 09:55:33;;;;;;;0.88;0.70;;;19.60;62.30;;;;;;4999776;28;20220;-66
2023/01/09 09:58:37;;;;;;;0.98;0.70;;;19.50;62.20;;;;;;4983266;28;20189;-66
2023/01/09 10:01:04;;;;;;;0.70;0.70;;;19.50;62.10;;;;;;4983399;28;20262;-67
2023/01/09 10:04:04;;;;;;;0.75;0.70;;;19.50;62.20;;;;;;4983745;28;20559;-66
2023/01/09 10:06:40;;;;;;;1.00;0.60;;;19.50;62.20;;;;;;4973948;28;20217;-67
2023/01/09 10:09:53;;;;;;;1.70;0.70;;;19.50;62.20;;;;;;5000960;28;20264;-68
2023/01/09 10:12:43;;;;;;;0.40;0.40;;;19.50;62.10;;;;;;4991575;28;20223;-67
2023/01/09 10:15:18;;;;;;;0.65;0.60;;;19.50;62.20;;;;;;4992617;28;20219;-66
2023/01/09 10:18:01;;;;;;;0.80;0.75;;;19.50;62.10;;;;;;5012055;28;20215;-66
2023/01/09 10:20:55;;;;;;;1.02;0.70;;;19.50;62.10;;;;;;5004023;28;20199;-67
2023/01/09 10:24:07;;;;;;;0.60;0.60;;;19.50;62.10;;;;;;4991863;28;20193;-67
2023/01/09 10:26:49;;;;;;;0.60;0.52;;;19.50;62.10;;;;;;4970581;28;20349;-66
2023/01/09 10:29:54;;;;;;;0.60;0.60;;;19.50;62.00;;;;;;4992671;28;20271;-66
2023/01/09 10:32:41;;;;;;;0.85;0.70;;;19.50;62.00;;;;;;4985574;28;20192;-66
2023/01/09 10:35:54;;;;;;;0.70;0.70;;;19.50;62.00;;;;;;5011473;28;20188;-68
2023/01/09 10:38:32;;;;;;;0.77;0.70;;;19.50;62.20;;;;;;4992323;28;20206;-66
2023/01/09 10:41:12;;;;;;;0.70;0.70;;;19.50;62.20;;;;;;4992890;28;20218;-66
2023/01/09 10:43:58;;;;;;;0.60;0.50;;;19.50;62.10;;;;;;4993009;28;20189;-66
2023/01/09 10:46:29;;;;;;;0.85;0.63;;;19.50;62.10;;;;;;4986149;28;20270;-66
2023/01/09 10:49:03;;;;;;;1.35;0.80;;;19.50;62.10;;;;;;4995755;28;20189;-66
2023/01/09 10:51:45;;;;;;;1.13;0.85;;;19.50;62.00;;;;;;4975577;28;20203;-66
2023/01/09 10:54:17;;;;;;;0.95;0.80;;;19.50;62.00;;;;;;5009727;28;20203;-66
2023/01/09 10:57:10;;;;;;;1.45;0.80;;;19.50;62.00;;;;;;4991614;28;20286;-66
2023/01/09 10:59:36;;;;;;;0.65;0.60;;;19.50;62.00;;;;;;4991540;28;20188;-66
2023/01/09 11:02:02;;;;;;;0.75;0.70;;;19.50;62.00;;;;;;5007567;28;20242;-66
2023/01/09 11:04:33;;;;;;;0.90;0.80;;;19.50;62.00;;;;;;4983171;28;20279;-66
2023/01/09 11:07:21;;;;;;;1.15;0.55;;;19.50;61.90;;;;;;4990364;28;20208;-66
2023/01/09 11:10:10;;;;;;;0.65;0.60;;;19.50;61.90;;;;;;5010865;28;20199;-66
2023/01/09 11:12:38;;;;;;;0.70;0.70;;;19.50;62.00;;;;;;4994945;28;20197;-66
2023/01/09 11:15:18;;;;;;;1.05;0.70;;;19.50;61.90;;;;;;4994486;28;20191;-67
2023/01/09 11:17:45;;;;;;;0.90;0.60;;;19.50;61.90;;;;;;4997098;28;20697;-66
2023/01/09 11:20:24;;;;;;;0.85;0.60;;;19.50;61.90;;;;;;4983671;28;20271;-66
2023/01/09 11:22:56;;;;;;;0.80;0.60;;;19.50;61.80;;;;;;5004537;28;20331;-66
2023/01/09 11:25:26;;;;;;;0.68;0.68;;;19.60;61.90;;;;;;5000649;28;20195;-66
2023/01/09 11:28:01;;;;;;;0.85;0.70;;;19.50;61.80;;;;;;5004180;28;20243;-66
2023/01/09 11:30:28;;;;;;;0.85;0.70;;;19.50;61.90;;;;;;4990780;28;20193;-66
2023/01/09 11:32:58;;;;;;;0.77;0.60;;;19.50;61.80;;;;;;4995239;28;20197;-66
2023/01/09 11:35:31;;;;;;;1.38;0.65;;;19.60;61.90;;;;;;4978634;28;20196;-67
2023/01/09 11:38:16;;;;;;;0.52;0.52;;;19.50;61.90;;;;;;5002213;28;20235;-66
2023/01/09 11:40:57;;;;;;;1.27;0.63;;;19.60;61.90;;;;;;5007936;28;20235;-66
2023/01/09 11:43:31;;;;;;;0.60;0.60;;;19.60;62.00;;;;;;5012238;28;20187;-67
2023/01/09 11:46:02;;;;;;;2.10;0.80;;;19.50;61.80;;;;;;4986471;28;20211;-67
2023/01/09 11:48:55;;;;;;;1.25;0.90;;;19.50;61.80;;;;;;4995538;28;20217;-67
2023/01/09 11:51:32;;;;;;;1.02;0.85;;;19.50;61.90;;;;;;4994667;28;20200;-66
2023/01/09 11:54:31;;;;;;;0.80;0.80;;;19.50;61.80;;;;;;5009528;28;20188;-67
2023/01/09 11:56:57;;;;;;;1.52;0.70;;;19.50;61.80;;;;;;5026213;28;20297;-66
2023/01/09 11:59:29;;;;;;;1.52;0.70;;;19.50;61.90;;;;;;5013717;28;20228;-66
2023/01/09 12:02:32;;;;;;;0.80;0.60;;;19.50;61.80;;;;;;5007435;28;20212;-67
2023/01/09 12:05:07;;;;;;;1.08;0.70;;;19.50;61.80;;;;;;4998612;28;20192;-66
2023/01/09 12:07:38;;;;;;;1.05;0.80;;;19.60;61.90;;;;;;5005971;28;20203;-66
2023/01/09 12:10:35;;;;;;;1.50;0.80;;;19.60;61.90;;;;;;5004531;28;20236;-66
2023/01/09 12:13:48;;;;;;;0.63;0.63;;;19.60;61.90;;;;;;5001794;28;20267;-66
2023/01/09 12:16:26;;;;;;;1.85;1.02;;;19.50;61.80;;;;;;4957166;28;20306;-66
2023/01/09 12:18:58;;;;;;;1.02;0.80;;;19.60;61.90;;;;;;4941349;28;20217;-67
2023/01/09 12:21:39;;;;;;;1.05;0.90;;;19.50;61.80;;;;;;4973883;28;20716;-66
2023/01/09 12:24:33;;;;;;;1.17;0.70;;;19.60;61.90;;;;;;5011034;28;20215;-66
2023/01/09 12:27:16;;;;;;;1.65;1.08;;;19.60;61.90;;;;;;5013319;28;20215;-66
2023/01/09 12:30:16;;;;;;;1.75;0.90;;;19.60;61.90;;;;;;5009387;28;20193;-66
2023/01/09 12:33:11;;;;;;;1.20;1.10;;;19.60;61.80;;;;;;5013117;28;20180;-66
2023/01/09 12:35:49;;;;;;;1.42;1.05;;;19.60;61.90;;;;;;5000422;28;20179;-67
2023/01/09 12:38:36;;;;;;;1.95;1.15;;;19.60;61.90;;;;;;4980406;28;20181;-66
2023/01/09 12:41:21;;;;;;;0.80;0.80;;;19.60;61.90;;;;;;4995280;28;20216;-67
2023/01/09 12:43:50;;;;;;;1.58;1.00;;;19.60;61.90;;;;;;5019796;28;20194;-66
2023/01/09 12:46:23;;;;;;;1.98;0.95;;;19.60;61.80;;;;;;4985366;28;20212;-66
2023/01/09 12:49:32;;;;;;;1.70;1.00;;;19.60;61.80;;;;;;5001723;28;20193;-66
2023/01/09 12:52:21;;;;;;;1.45;1.00;;;19.60;61.80;;;;;;4984516;28;20203;-67
2023/01/09 12:55:05;;;;;;;0.82;0.80;;;19.60;61.90;;;;;;4984911;28;20196;-67
2023/01/09 12:57:39;;;;;;;0.70;0.70;;;19.60;61.80;;;;;;4986897;28;20212;-67
2023/01/09 13:00:14;;;;;;;1.77;0.90;;;19.60;61.90;;;;;;4995900;28;20199;-66
2023/01/09 13:02:47;;;;;;;0.80;0.80;;;19.60;61.90;;;;;;4996275;28;20188;-67
2023/01/09 13:05:25;;;;;;;1.90;1.10;;;19.60;61.80;;;;;;4980553;28;20720;-66
2023/01/09 13:08:02;;;;;;;1.60;0.90;;;19.60;61.90;;;;;;5012297;28;20231;-68
2023/01/09 13:10:46;;;;;;;2.08;1.05;;;19.60;61.90;;;;;;4988453;28;20208;-66
2023/01/09 13:13:53;;;;;;;1.48;0.80;;;19.60;61.90;;;;;;5004604;28;20214;-66
2023/01/09 13:16:30;;;;;;;3.70;0.95;;;19.60;61.90;;;;;;4991694;28;20311;-67
2023/01/09 13:19:19;;;;;;;2.22;0.90;;;19.60;62.10;;;;;;5006347;28;20192;-67
2023/01/09 13:21:45;;;;;;;1.70;1.08;;;19.60;62.00;;;;;;5070619;23;20243;-70
2023/01/09 13:24:54;;;;;;;1.60;1.02;;;19.60;62.00;;;;;;5001833;28;20192;-71
2023/01/09 13:27:25;;;;;;;1.17;0.90;;;19.60;62.00;;;;;;4971476;28;20189;-73
2023/01/09 13:30:10;;;;;;;1.40;1.10;;;19.60;62.00;;;;;;5012391;28;20184;-73